Centerville, Washington
Current Conditions -  °F | °C
As of 9:53 AM on Sunday 21 Dec 2014 (Local Time) from KDLS Reporting Station
Light Rain Light Rain  
Wind Chill: 53°   Ceiling: 6500
Heat Index: 53°   Visibility: 8mi
Dew Point: 47°   Wind: 16mph
Humidity: 80%   Direction: 290°WNW
Pressure: 29.96"   Gusts: NA
Location:  45.75°N, 120.91°W
Report Text: KDLS 211753Z AUTO 29014KT 8SM -RA FEW033 SCT049 OVC065 12/08 A2996 RMK AO2 SLP145 P0003 60015 T01170083 10128 20106 53034
Loading
Personal Weather Stations






























Interactive Weather Map New forecast layout! Learn more

10-Day Weather Forecast

Advertisements
Track Severe Weather on mobile